Time;durP1;ratioP1;P1;durP2;ratioP2;P2;SDS_P1;SDS_P2;PMS_P1;PMS_P2;Temp;Humidity;BMP_temperature;BMP_pressure;BME280_temperature;BME280_humidity;BME280_pressure;Samples;Min_cycle;Max_cycle;Signal;HPM_P1;HPM_P2
2023/01/24 00:00:30;;;;;;;29.00;16.80;;;2.90;99.90;;;;;;5072687;28;20032;-50
2023/01/24 00:02:55;;;;;;;29.52;16.10;;;3.20;99.90;;;;;;5072192;28;20045;-51
2023/01/24 00:05:21;;;;;;;28.98;15.85;;;2.90;99.90;;;;;;5072168;28;20047;-52
2023/01/24 00:07:47;;;;;;;35.83;16.30;;;3.00;99.90;;;;;;5072576;28;20369;-49
2023/01/24 00:10:12;;;;;;;30.67;16.45;;;3.00;99.90;;;;;;5070894;28;20391;-48
2023/01/24 00:12:38;;;;;;;29.25;16.40;;;4.10;99.90;;;;;;5072518;28;20120;-53
2023/01/24 00:15:05;;;;;;;30.48;16.52;;;2.90;99.90;;;;;;5070977;28;20045;-50
2023/01/24 00:17:31;;;;;;;30.63;17.08;;;3.00;99.90;;;;;;5079227;28;20032;-52
2023/01/24 00:19:56;;;;;;;29.85;16.60;;;2.90;99.90;;;;;;5072157;28;20170;-49
2023/01/24 00:22:22;;;;;;;32.28;17.35;;;2.90;99.90;;;;;;5070790;28;20032;-51
2023/01/24 00:24:48;;;;;;;30.00;17.17;;;2.90;99.90;;;;;;5071938;28;20044;-51
2023/01/24 00:27:15;;;;;;;31.77;16.58;;;2.90;99.90;;;;;;5072319;28;20127;-53
2023/01/24 00:29:41;;;;;;;32.50;17.08;;;3.00;99.90;;;;;;5083335;28;20094;-49
2023/01/24 00:32:07;;;;;;;33.63;18.05;;;2.90;99.90;;;;;;5072209;28;20071;-49
2023/01/24 00:34:33;;;;;;;30.02;17.25;;;2.90;99.90;;;;;;5070416;28;20036;-53
2023/01/24 00:36:59;;;;;;;33.95;17.25;;;2.90;99.90;;;;;;5071495;28;20102;-51
2023/01/24 00:39:24;;;;;;;30.25;17.85;;;3.00;99.90;;;;;;5071538;28;20071;-54
2023/01/24 00:41:50;;;;;;;28.77;16.55;;;3.00;99.90;;;;;;5071908;28;20041;-50
2023/01/24 00:44:16;;;;;;;33.53;16.92;;;3.30;99.90;;;;;;5071747;28;20499;-53
2023/01/24 00:46:41;;;;;;;31.55;17.08;;;2.90;99.90;;;;;;5071726;28;20032;-49
2023/01/24 00:49:07;;;;;;;28.75;16.83;;;2.90;99.90;;;;;;5071678;28;20041;-50
2023/01/24 00:51:33;;;;;;;31.25;16.67;;;2.90;99.90;;;;;;5071397;28;20097;-53
2023/01/24 00:53:59;;;;;;;31.13;17.08;;;2.90;99.90;;;;;;5071255;28;20036;-52
2023/01/24 00:56:25;;;;;;;31.83;17.35;;;2.90;99.90;;;;;;5071046;28;20057;-51
2023/01/24 00:58:51;;;;;;;31.42;16.30;;;2.90;99.90;;;;;;5071200;28;20044;-49
2023/01/24 01:01:17;;;;;;;31.40;16.65;;;2.80;99.90;;;;;;5071632;28;20086;-51
2023/01/24 01:03:42;;;;;;;30.67;17.52;;;2.90;99.90;;;;;;5071081;28;20045;-51
2023/01/24 01:06:13;;;;;;;32.38;17.27;;;2.80;99.90;;;;;;5077666;28;20079;-51
2023/01/24 01:08:39;;;;;;;31.30;16.92;;;2.90;99.90;;;;;;5070121;28;20051;-52
2023/01/24 01:11:05;;;;;;;30.65;17.75;;;2.90;99.90;;;;;;5070896;28;20036;-53
2023/01/24 01:13:31;;;;;;;30.10;17.00;;;3.70;99.90;;;;;;5069588;28;20036;-51
2023/01/24 01:16:11;;;;;;;31.35;16.50;;;3.10;99.90;;;;;;5071246;28;20043;-49
2023/01/24 01:18:38;;;;;;;33.35;16.80;;;2.90;99.90;;;;;;5071070;28;20035;-53
2023/01/24 01:21:05;;;;;;;32.42;17.95;;;2.90;99.90;;;;;;5071234;28;20485;-50
2023/01/24 01:23:31;;;;;;;30.95;16.70;;;2.80;99.90;;;;;;5069762;28;20033;-53
2023/01/24 01:26:01;;;;;;;30.63;16.58;;;2.90;99.90;;;;;;5071111;28;20052;-53
2023/01/24 01:28:28;;;;;;;34.15;17.50;;;2.90;99.90;;;;;;5069545;28;20029;-47
2023/01/24 01:30:54;;;;;;;31.55;17.77;;;2.90;99.90;;;;;;5073517;28;20495;-50
2023/01/24 01:33:20;;;;;;;31.85;17.70;;;2.80;99.90;;;;;;5073911;28;20215;-49
2023/01/24 01:35:47;;;;;;;35.60;17.95;;;2.80;99.90;;;;;;5072904;28;20129;-51
2023/01/24 01:38:13;;;;;;;34.35;17.20;;;3.30;99.90;;;;;;5071098;28;20041;-52
2023/01/24 01:40:38;;;;;;;29.73;16.25;;;2.80;99.90;;;;;;5069239;28;20074;-50
2023/01/24 01:43:11;;;;;;;28.38;16.08;;;2.90;99.90;;;;;;5070660;28;20032;-50
2023/01/24 01:45:47;;;;;;;30.27;16.27;;;2.80;99.90;;;;;;5070992;28;20418;-50
2023/01/24 01:48:37;;;;;;;28.25;16.02;;;2.90;99.90;;;;;;5070928;28;20106;-51
2023/01/24 01:51:29;;;;;;;30.52;15.80;;;2.80;99.90;;;;;;5070334;28;20067;-49
2023/01/24 01:54:11;;;;;;;32.70;16.00;;;2.80;99.90;;;;;;5061982;28;20045;-51
2023/01/24 01:56:45;;;;;;;32.90;17.15;;;2.80;99.90;;;;;;5072036;28;20092;-50
2023/01/24 01:59:17;;;;;;;28.40;16.40;;;2.90;99.90;;;;;;5070476;28;20083;-52
2023/01/24 02:01:45;;;;;;;28.42;15.60;;;2.80;99.90;;;;;;5070718;28;20085;-52
2023/01/24 02:04:18;;;;;;;29.63;16.17;;;2.90;99.90;;;;;;5070833;28;20037;-51
2023/01/24 02:06:49;;;;;;;28.08;14.63;;;2.80;99.90;;;;;;5070388;28;20071;-50
2023/01/24 02:09:21;;;;;;;27.42;15.85;;;3.10;99.90;;;;;;5082305;28;20036;-53
2023/01/24 02:11:49;;;;;;;28.05;15.25;;;3.50;99.90;;;;;;5069466;28;20123;-53
2023/01/24 02:17:02;;;;;;;27.98;14.25;;;2.80;99.90;;;;;;5078443;28;20490;-54
2023/01/24 02:19:34;;;;;;;26.80;15.13;;;2.80;99.90;;;;;;5070194;28;20044;-52
2023/01/24 02:22:10;;;;;;;27.00;15.20;;;2.80;99.90;;;;;;5069119;28;20102;-52
2023/01/24 02:24:43;;;;;;;27.48;14.27;;;2.90;99.90;;;;;;5070539;28;20033;-54
2023/01/24 02:27:09;;;;;;;23.73;13.68;;;2.80;99.90;;;;;;5070639;28;20468;-51
2023/01/24 02:29:34;;;;;;;25.48;13.68;;;2.80;99.90;;;;;;5070114;28;20036;-49
2023/01/24 02:32:05;;;;;;;27.40;14.32;;;2.90;99.90;;;;;;5070199;28;20033;-49
2023/01/24 02:34:30;;;;;;;24.17;14.10;;;3.40;99.90;;;;;;5069821;28;20108;-49
2023/01/24 02:37:02;;;;;;;24.13;13.68;;;2.90;99.90;;;;;;5070440;28;20123;-49
2023/01/24 02:39:35;;;;;;;23.92;13.27;;;2.80;99.90;;;;;;5069425;28;20090;-48
2023/01/24 02:42:08;;;;;;;21.88;12.63;;;2.80;99.90;;;;;;5070085;28;20065;-48
2023/01/24 02:44:56;;;;;;;22.70;13.50;;;2.90;99.90;;;;;;5070139;28;20047;-51
2023/01/24 02:47:32;;;;;;;24.90;13.48;;;2.90;99.90;;;;;;5068306;28;20039;-50
2023/01/24 02:50:01;;;;;;;22.25;12.38;;;3.10;99.90;;;;;;5069892;28;20484;-50
2023/01/24 02:55:12;;;;;;;23.60;13.38;;;2.80;99.90;;;;;;5070151;28;20063;-53
2023/01/24 03:00:23;;;;;;;23.55;13.02;;;2.90;99.90;;;;;;5069982;28;20040;-53
2023/01/24 03:02:49;;;;;;;21.70;12.80;;;3.50;99.90;;;;;;5073463;28;20484;-51
2023/01/24 03:05:14;;;;;;;20.92;12.48;;;2.80;99.90;;;;;;5073268;28;20032;-51
2023/01/24 03:07:44;;;;;;;20.38;12.40;;;2.80;99.90;;;;;;5073720;28;20044;-53
2023/01/24 03:10:12;;;;;;;21.85;11.65;;;2.80;99.90;;;;;;5073554;28;20464;-48
2023/01/24 03:34:45;;;;;;;23.55;13.13;;;2.70;99.90;;;;;;5072875;28;20403;-50
2023/01/24 03:37:12;;;;;;;22.92;13.10;;;2.80;99.90;;;;;;5073142;28;20072;-51
2023/01/24 03:42:22;;;;;;;;;;;2.80;99.90;;;;;;5073119;28;20400;-49
2023/01/24 03:44:47;;;;;;;23.88;13.90;;;2.70;99.90;;;;;;5071217;28;19916;-50
2023/01/24 03:47:13;;;;;;;23.67;12.85;;;2.80;99.90;;;;;;5072975;28;20119;-47
2023/01/24 03:52:29;;;;;;;27.02;14.52;;;2.80;99.90;;;;;;5072690;28;20085;-50
2023/01/24 03:54:58;;;;;;;26.08;15.85;;;2.80;99.90;;;;;;5072233;28;20373;-48
2023/01/24 03:57:25;;;;;;;27.92;14.73;;;2.80;99.90;;;;;;5072875;28;20044;-51
2023/01/24 03:59:51;;;;;;;27.25;15.02;;;2.70;99.90;;;;;;5072699;28;20044;-52
2023/01/24 04:02:17;;;;;;;26.73;15.65;;;2.70;99.90;;;;;;5072709;28;20491;-51
2023/01/24 04:07:27;;;;;;;;;;;2.70;99.90;;;;;;5072894;28;20052;-50
2023/01/24 04:09:53;;;;;;;28.35;14.45;;;2.70;99.90;;;;;;5072612;28;19921;-48
2023/01/24 04:12:19;;;;;;;23.77;12.98;;;2.70;99.90;;;;;;5071553;28;20032;-48
2023/01/24 04:14:44;;;;;;;23.48;13.80;;;2.70;99.90;;;;;;5072410;28;20037;-50
2023/01/24 04:17:10;;;;;;;25.00;14.68;;;2.70;99.90;;;;;;5072359;28;20506;-50
2023/01/24 04:19:36;;;;;;;26.42;14.60;;;2.70;99.90;;;;;;5070418;28;20523;-47
2023/01/24 04:22:02;;;;;;;24.65;14.15;;;2.70;99.90;;;;;;5073524;28;20047;-49
2023/01/24 04:24:28;;;;;;;27.15;14.85;;;2.70;99.90;;;;;;5082802;28;20387;-50
2023/01/24 04:26:53;;;;;;;29.27;15.10;;;3.00;99.90;;;;;;5092663;28;20095;-50
2023/01/24 04:29:20;;;;;;;26.05;15.05;;;2.70;99.90;;;;;;5090734;28;20075;-50
2023/01/24 04:31:46;;;;;;;27.52;13.75;;;2.70;99.90;;;;;;5092528;28;20403;-48
2023/01/24 04:34:12;;;;;;;26.33;14.23;;;2.90;99.90;;;;;;5092479;28;20042;-48
2023/01/24 04:36:38;;;;;;;23.77;13.25;;;2.70;99.90;;;;;;5092113;28;20036;-50
2023/01/24 04:39:03;;;;;;;24.92;13.15;;;2.70;99.90;;;;;;5092115;28;20537;-51
2023/01/24 04:41:29;;;;;;;25.70;13.48;;;2.70;99.90;;;;;;5092100;28;20067;-53
2023/01/24 04:43:55;;;;;;;21.08;12.25;;;2.60;99.90;;;;;;5091006;28;20085;-50
2023/01/24 04:46:20;;;;;;;21.88;12.63;;;2.70;99.90;;;;;;5091909;28;20039;-48
2023/01/24 04:48:46;;;;;;;21.35;11.57;;;2.70;99.90;;;;;;5092116;28;20050;-52
2023/01/24 04:51:12;;;;;;;22.02;11.75;;;2.70;99.90;;;;;;5090477;28;20044;-49
2023/01/24 04:53:39;;;;;;;20.48;10.77;;;2.60;99.90;;;;;;5076312;28;20086;-49
2023/01/24 04:56:05;;;;;;;18.25;10.93;;;2.60;99.90;;;;;;5071388;28;20123;-49
2023/01/24 04:58:32;;;;;;;21.33;11.30;;;2.60;99.90;;;;;;5071278;28;20045;-49
2023/01/24 05:00:58;;;;;;;20.17;11.27;;;2.60;99.90;;;;;;5071625;28;20064;-50
2023/01/24 05:03:24;;;;;;;19.38;11.15;;;2.60;99.90;;;;;;5071653;28;20522;-50
2023/01/24 05:05:50;;;;;;;19.80;10.68;;;2.60;99.90;;;;;;5070732;28;20133;-52
2023/01/24 05:08:16;;;;;;;20.92;11.07;;;2.60;99.90;;;;;;5070224;28;20123;-52
2023/01/24 05:10:42;;;;;;;21.73;10.95;;;2.60;99.90;;;;;;5069880;28;20461;-54
2023/01/24 05:13:07;;;;;;;19.95;10.93;;;2.60;99.90;;;;;;5071031;28;20089;-53
2023/01/24 05:15:33;;;;;;;20.15;11.35;;;2.60;99.90;;;;;;5070813;28;20036;-50
2023/01/24 05:17:59;;;;;;;20.05;11.75;;;2.60;99.90;;;;;;5071386;28;20070;-51
2023/01/24 05:20:25;;;;;;;23.88;11.95;;;2.60;99.90;;;;;;5071098;28;20045;-49
2023/01/24 05:22:50;;;;;;;21.92;11.35;;;2.60;99.90;;;;;;5071185;28;20476;-50
2023/01/24 05:25:17;;;;;;;21.48;11.23;;;2.60;99.90;;;;;;5070481;28;20093;-54
2023/01/24 05:27:43;;;;;;;19.92;11.13;;;2.60;99.90;;;;;;5071389;28;20055;-52
2023/01/24 05:30:09;;;;;;;20.10;11.32;;;2.60;99.90;;;;;;5071044;28;20036;-50
2023/01/24 05:32:36;;;;;;;19.67;10.35;;;2.60;99.90;;;;;;5069624;28;20048;-53
2023/01/24 05:35:02;;;;;;;21.33;11.00;;;2.50;99.90;;;;;;5070491;28;20040;-52
2023/01/24 05:37:27;;;;;;;21.73;10.95;;;2.60;99.90;;;;;;5071118;28;20042;-48
2023/01/24 05:39:53;;;;;;;20.00;10.60;;;2.60;99.90;;;;;;5070850;28;20140;-53
2023/01/24 05:42:19;;;;;;;17.65;10.73;;;2.60;99.90;;;;;;5071099;28;20039;-49
2023/01/24 05:44:44;;;;;;;22.85;11.77;;;2.50;99.90;;;;;;5071104;28;20111;-52
2023/01/24 05:47:10;;;;;;;21.13;10.55;;;2.60;99.90;;;;;;5071113;28;20028;-51
2023/01/24 05:49:36;;;;;;;21.15;9.98;;;2.50;99.90;;;;;;5070739;28;20047;-50
2023/01/24 05:52:01;;;;;;;18.63;10.25;;;2.60;99.90;;;;;;5070481;28;20028;-49
2023/01/24 05:54:27;;;;;;;20.42;11.27;;;2.60;99.90;;;;;;5069163;28;20033;-54
2023/01/24 05:56:53;;;;;;;19.23;9.73;;;2.50;99.90;;;;;;5070014;28;20102;-49
2023/01/24 05:59:18;;;;;;;18.05;9.65;;;2.50;99.90;;;;;;5070376;28;20044;-49
2023/01/24 06:01:44;;;;;;;15.93;9.18;;;2.50;99.90;;;;;;5070370;28;20042;-52
2023/01/24 06:04:10;;;;;;;17.50;8.95;;;2.50;99.90;;;;;;5070502;28;20472;-50
2023/01/24 06:06:36;;;;;;;15.38;8.75;;;2.50;99.90;;;;;;5070197;28;20071;-52
2023/01/24 06:09:01;;;;;;;17.52;9.90;;;2.50;99.90;;;;;;5083742;28;20054;-51
2023/01/24 06:11:28;;;;;;;16.88;9.38;;;2.50;99.90;;;;;;5089142;28;20043;-47
2023/01/24 06:13:55;;;;;;;16.42;9.23;;;2.50;99.90;;;;;;5090801;28;20036;-53
2023/01/24 06:16:23;;;;;;;16.98;8.75;;;3.10;99.90;;;;;;5090775;28;20475;-47
2023/01/24 06:18:51;;;;;;;17.85;9.70;;;2.60;99.90;;;;;;5081934;28;20040;-51
2023/01/24 06:21:43;;;;;;;19.35;9.65;;;2.40;99.90;;;;;;5070496;28;20044;-51
2023/01/24 06:24:18;;;;;;;17.13;8.93;;;2.40;99.90;;;;;;5069109;28;20048;-50
2023/01/24 06:26:45;;;;;;;16.35;9.05;;;2.50;99.90;;;;;;5069985;28;20565;-49
2023/01/24 06:29:11;;;;;;;15.40;8.57;;;2.40;99.90;;;;;;5070607;28;20040;-51
2023/01/24 06:31:41;;;;;;;15.43;8.77;;;2.40;99.90;;;;;;5070482;28;20032;-51
2023/01/24 06:34:38;;;;;;;16.60;8.90;;;2.40;99.90;;;;;;5070363;28;20660;-52
2023/01/24 06:37:22;;;;;;;16.02;8.82;;;2.40;99.90;;;;;;5073476;28;20036;-50
2023/01/24 06:39:52;;;;;;;;;;;2.40;99.90;;;;;;5073615;28;20042;-50
2023/01/24 06:42:19;;;;;;;20.60;9.25;;;2.40;99.90;;;;;;5073665;28;19928;-51
2023/01/24 06:44:45;;;;;;;14.13;7.90;;;2.40;99.90;;;;;;5072946;28;20040;-51
2023/01/24 06:47:11;;;;;;;15.82;8.98;;;2.40;99.90;;;;;;5073538;28;20576;-51
2023/01/24 06:49:37;;;;;;;15.07;8.75;;;3.20;99.90;;;;;;5073552;28;20484;-49
2023/01/24 06:52:04;;;;;;;14.85;8.68;;;2.70;99.90;;;;;;5073195;28;20037;-49
2023/01/24 06:54:29;;;;;;;16.88;8.80;;;2.80;99.90;;;;;;5072011;28;20044;-47
2023/01/24 06:56:55;;;;;;;15.45;8.52;;;2.40;99.90;;;;;;5072950;28;20056;-49
2023/01/24 06:59:22;;;;;;;14.32;8.38;;;2.40;99.90;;;;;;5072969;28;20053;-51
2023/01/24 07:01:49;;;;;;;17.38;8.90;;;2.60;99.90;;;;;;5073364;28;20044;-52
2023/01/24 07:04:15;;;;;;;16.35;8.70;;;2.30;99.90;;;;;;5073140;28;20024;-53
2023/01/24 07:06:41;;;;;;;15.60;8.73;;;2.30;99.90;;;;;;5072872;28;20032;-52
2023/01/24 07:09:07;;;;;;;15.40;8.50;;;2.30;99.90;;;;;;5073960;28;20047;-51
2023/01/24 07:11:33;;;;;;;14.65;8.45;;;2.30;99.90;;;;;;5068596;28;20040;-51
2023/01/24 07:13:59;;;;;;;17.13;9.40;;;2.80;99.90;;;;;;5067166;28;20123;-47
2023/01/24 07:16:24;;;;;;;15.77;9.18;;;2.30;99.90;;;;;;5059074;28;20128;-51
2023/01/24 07:18:50;;;;;;;17.13;9.05;;;2.30;99.90;;;;;;5060339;28;20131;-51
2023/01/24 07:21:16;;;;;;;16.90;9.35;;;2.30;99.90;;;;;;5060276;28;20041;-49
2023/01/24 07:23:47;;;;;;;16.48;9.10;;;2.30;99.90;;;;;;5061787;28;20111;-48
2023/01/24 07:26:14;;;;;;;17.52;9.00;;;2.30;99.90;;;;;;5060090;28;20062;-50
2023/01/24 07:28:40;;;;;;;19.60;9.55;;;2.30;99.90;;;;;;5061510;28;20028;-49
2023/01/24 07:31:07;;;;;;;20.70;10.23;;;2.30;99.90;;;;;;5060520;28;20044;-51
2023/01/24 07:33:33;;;;;;;18.00;9.98;;;2.30;99.90;;;;;;5061128;28;20036;-53
2023/01/24 07:35:59;;;;;;;15.52;9.55;;;2.30;99.90;;;;;;5061221;28;20124;-51
2023/01/24 07:38:24;;;;;;;20.13;10.88;;;2.30;99.90;;;;;;5061532;28;20112;-49
2023/01/24 07:40:50;;;;;;;16.13;9.73;;;2.60;99.90;;;;;;5059386;28;20045;-52
2023/01/24 07:43:18;;;;;;;18.42;10.50;;;2.30;99.90;;;;;;5061199;28;20029;-51
2023/01/24 07:45:47;;;;;;;19.65;10.32;;;2.30;99.90;;;;;;5060396;28;20450;-53
2023/01/24 07:48:13;;;;;;;18.40;10.18;;;2.30;99.90;;;;;;5060613;28;20039;-49
2023/01/24 07:50:38;;;;;;;18.83;10.82;;;2.40;99.90;;;;;;5059549;28;20476;-49
2023/01/24 07:53:05;;;;;;;20.73;11.90;;;2.30;99.90;;;;;;5060075;28;20067;-47
2023/01/24 07:55:30;;;;;;;23.88;11.43;;;2.30;99.90;;;;;;5060375;28;20055;-53
2023/01/24 07:58:01;;;;;;;21.35;11.23;;;2.40;99.90;;;;;;5059053;28;20044;-48
2023/01/24 08:00:27;;;;;;;23.13;11.38;;;2.30;99.90;;;;;;5062435;28;20479;-47
2023/01/24 08:02:53;;;;;;;17.48;10.05;;;2.30;99.90;;;;;;5060844;28;20030;-47
2023/01/24 08:05:18;;;;;;;17.80;9.50;;;2.30;99.90;;;;;;5059953;28;20399;-49
2023/01/24 08:07:44;;;;;;;17.48;10.13;;;2.40;99.90;;;;;;5061174;28;20040;-51
2023/01/24 08:10:10;;;;;;;17.15;10.18;;;2.30;99.90;;;;;;5061809;28;20151;-49
2023/01/24 08:12:36;;;;;;;17.42;10.18;;;2.30;99.90;;;;;;5059944;28;20060;-47
2023/01/24 08:15:02;;;;;;;17.60;9.57;;;2.30;99.90;;;;;;5059123;28;20040;-47
2023/01/24 08:17:27;;;;;;;18.15;10.93;;;2.40;99.90;;;;;;5060417;28;20684;-49
2023/01/24 08:19:53;;;;;;;22.38;11.15;;;2.30;99.90;;;;;;5061416;28;20066;-49
2023/01/24 08:22:19;;;;;;;19.15;9.90;;;2.30;99.90;;;;;;5060664;28;20127;-47
2023/01/24 08:24:44;;;;;;;19.08;10.27;;;3.10;99.90;;;;;;5060199;28;20060;-48
2023/01/24 08:27:10;;;;;;;19.52;10.73;;;2.30;99.90;;;;;;5057768;28;20051;-48
2023/01/24 08:29:36;;;;;;;17.77;10.35;;;2.30;99.90;;;;;;5056338;28;20123;-48
2023/01/24 08:32:02;;;;;;;18.05;10.18;;;2.30;99.90;;;;;;5060983;28;20487;-49
2023/01/24 08:34:27;;;;;;;16.83;10.13;;;2.30;99.90;;;;;;5058638;28;20064;-48
2023/01/24 08:36:53;;;;;;;18.40;10.23;;;2.30;99.90;;;;;;5058147;28;20047;-48
2023/01/24 08:39:19;;;;;;;15.75;9.73;;;2.30;99.90;;;;;;5058742;28;20507;-49
2023/01/24 08:41:46;;;;;;;17.73;9.77;;;2.30;99.90;;;;;;5056385;28;20040;-48
2023/01/24 08:44:15;;;;;;;18.42;10.45;;;2.30;99.90;;;;;;5060228;28;20032;-48
2023/01/24 08:46:42;;;;;;;17.45;10.60;;;2.30;99.90;;;;;;5058933;28;23127;-48
2023/01/24 08:49:10;;;;;;;18.17;10.55;;;2.50;99.90;;;;;;5058994;28;20068;-47
2023/01/24 08:51:35;;;;;;;18.25;10.10;;;2.30;99.90;;;;;;5062230;28;20476;-48
2023/01/24 08:54:03;;;;;;;18.83;10.95;;;2.30;99.90;;;;;;5061484;28;20047;-50
2023/01/24 08:56:29;;;;;;;19.55;10.75;;;2.30;99.90;;;;;;5059924;28;20071;-48
2023/01/24 08:58:55;;;;;;;19.17;9.90;;;2.40;99.90;;;;;;5060114;28;20045;-48
2023/01/24 09:01:20;;;;;;;21.48;11.32;;;2.30;99.90;;;;;;5059605;28;20025;-52
2023/01/24 09:03:46;;;;;;;18.52;10.82;;;2.40;99.90;;;;;;5058928;28;20033;-51
2023/01/24 09:06:12;;;;;;;18.63;11.07;;;2.40;99.90;;;;;;5058542;28;20366;-49
2023/01/24 09:08:37;;;;;;;18.70;11.00;;;2.50;99.90;;;;;;5059494;28;20047;-49
2023/01/24 09:11:03;;;;;;;19.02;11.10;;;2.50;99.90;;;;;;5060024;28;20040;-48
2023/01/24 09:13:29;;;;;;;19.27;11.35;;;2.40;99.90;;;;;;5059530;28;20153;-51
2023/01/24 09:15:57;;;;;;;16.98;9.85;;;2.30;99.90;;;;;;5060564;28;20032;-50
2023/01/24 09:18:23;;;;;;;18.40;10.13;;;2.30;99.90;;;;;;5055832;28;20036;-50
2023/01/24 09:20:49;;;;;;;16.80;10.35;;;2.40;99.90;;;;;;5058624;28;20629;-47
2023/01/24 09:23:14;;;;;;;19.35;10.80;;;2.40;99.90;;;;;;5057432;28;20040;-51
2023/01/24 09:25:41;;;;;;;18.70;10.85;;;2.40;99.90;;;;;;5059497;28;23290;-48
2023/01/24 09:28:07;;;;;;;20.83;11.57;;;2.40;99.90;;;;;;5060953;28;20403;-51
2023/01/24 09:30:34;;;;;;;19.08;10.82;;;2.40;99.90;;;;;;5059178;28;20037;-50
2023/01/24 09:33:04;;;;;;;19.48;11.18;;;2.30;99.90;;;;;;5060916;28;20040;-50
2023/01/24 09:35:29;;;;;;;17.83;11.32;;;2.40;99.90;;;;;;5056634;28;20044;-50
2023/01/24 09:37:56;;;;;;;19.80;10.93;;;2.40;99.90;;;;;;5055654;28;20036;-52
2023/01/24 09:40:28;;;;;;;19.30;11.27;;;2.40;99.90;;;;;;5058181;28;20488;-51
2023/01/24 09:43:23;;;;;;;16.85;10.75;;;2.40;99.90;;;;;;5059837;28;20032;-51
2023/01/24 09:46:09;;;;;;;17.83;10.07;;;2.40;99.90;;;;;;5018405;28;20377;-50
2023/01/24 09:48:35;;;;;;;18.90;11.07;;;2.40;99.90;;;;;;5059178;28;20356;-49
2023/01/24 09:51:09;;;;;;;19.67;11.65;;;2.40;99.90;;;;;;5060370;28;20043;-49
2023/01/24 09:53:42;;;;;;;18.27;10.82;;;2.30;99.90;;;;;;5058441;28;20037;-48
2023/01/24 09:56:26;;;;;;;22.77;11.75;;;2.40;99.90;;;;;;5059309;28;20041;-52
2023/01/24 09:59:16;;;;;;;18.30;10.82;;;2.80;99.90;;;;;;5061316;28;20148;-52
2023/01/24 10:01:41;;;;;;;18.17;10.80;;;2.40;99.90;;;;;;5060441;28;20123;-49
2023/01/24 10:04:19;;;;;;;21.55;11.57;;;3.10;99.90;;;;;;5060655;28;20185;-49
2023/01/24 10:06:59;;;;;;;18.50;11.15;;;2.30;99.90;;;;;;5060208;28;20048;-48
2023/01/24 10:09:38;;;;;;;20.42;11.38;;;2.70;99.90;;;;;;5059640;28;20048;-49
2023/01/24 10:12:14;;;;;;;20.55;11.48;;;2.40;99.90;;;;;;5055086;28;20032;-49
2023/01/24 10:14:55;;;;;;;22.95;11.85;;;1.20;99.90;;;;;;5051898;28;20376;-52
2023/01/24 10:17:42;;;;;;;19.17;10.45;;;2.40;99.90;;;;;;5051018;28;20087;-50
2023/01/24 10:20:32;;;;;;;18.52;10.45;;;2.40;99.90;;;;;;5054315;28;20469;-50
2023/01/24 10:23:15;;;;;;;19.88;11.27;;;2.40;99.90;;;;;;5052740;28;20036;-51
2023/01/24 10:25:55;;;;;;;19.40;11.13;;;2.40;99.90;;;;;;5059640;28;20131;-50
2023/01/24 10:28:43;;;;;;;20.33;11.35;;;2.70;99.90;;;;;;5063446;28;20032;-53
2023/01/24 10:31:17;;;;;;;20.42;10.85;;;2.40;99.90;;;;;;5061045;28;20635;-50
2023/01/24 10:33:54;;;;;;;21.50;12.10;;;2.40;99.90;;;;;;5062447;28;20052;-53
2023/01/24 10:36:34;;;;;;;18.80;11.32;;;2.50;99.90;;;;;;5060687;28;20083;-49
2023/01/24 10:39:00;;;;;;;21.10;12.48;;;2.50;99.90;;;;;;5063855;28;20024;-47
2023/01/24 10:41:31;;;;;;;19.83;12.18;;;2.50;99.90;;;;;;5061972;28;20032;-49
2023/01/24 10:44:04;;;;;;;23.20;12.98;;;2.50;99.90;;;;;;5061101;28;20924;-51
2023/01/24 10:46:36;;;;;;;19.60;11.25;;;2.50;99.90;;;;;;5060909;28;20154;-53
2023/01/24 10:49:02;;;;;;;19.55;11.65;;;2.50;99.90;;;;;;5061523;28;20051;-51
2023/01/24 10:51:28;;;;;;;19.95;11.38;;;2.40;99.90;;;;;;5060971;28;20051;-52
2023/01/24 10:54:01;;;;;;;17.65;11.20;;;2.50;99.90;;;;;;5062961;28;20751;-50
2023/01/24 10:56:27;;;;;;;19.55;11.65;;;2.50;99.90;;;;;;5063065;28;20119;-46
2023/01/24 10:59:00;;;;;;;19.58;10.95;;;2.60;99.90;;;;;;5062748;28;20568;-49
2023/01/24 11:01:48;;;;;;;19.40;11.55;;;2.40;99.90;;;;;;5059448;28;20134;-49
2023/01/24 11:04:23;;;;;;;20.85;12.15;;;2.50;99.90;;;;;;5061821;28;20044;-52
2023/01/24 11:06:50;;;;;;;19.42;11.27;;;2.40;99.90;;;;;;5062156;28;20487;-50
2023/01/24 11:09:21;;;;;;;22.52;12.32;;;2.50;99.90;;;;;;5062074;28;20052;-50
2023/01/24 11:11:58;;;;;;;21.67;12.10;;;2.50;99.90;;;;;;5060586;28;20495;-49
2023/01/24 11:14:27;;;;;;;19.20;11.48;;;2.50;99.90;;;;;;5060287;28;20048;-52
2023/01/24 11:16:55;;;;;;;19.88;11.93;;;2.50;99.90;;;;;;5062307;28;20044;-50
2023/01/24 11:19:30;;;;;;;19.20;11.30;;;2.50;99.90;;;;;;5063333;28;20438;-52
2023/01/24 11:21:59;;;;;;;18.15;10.80;;;2.60;99.90;;;;;;5060891;28;20029;-51
2023/01/24 11:24:26;;;;;;;18.92;11.35;;;2.50;99.90;;;;;;5062077;28;20124;-53
2023/01/24 11:27:03;;;;;;;19.10;11.73;;;2.50;99.90;;;;;;5062325;28;20052;-50
2023/01/24 11:29:31;;;;;;;18.05;11.15;;;2.50;99.90;;;;;;5061865;28;20506;-52
2023/01/24 11:32:19;;;;;;;20.30;11.90;;;2.80;99.90;;;;;;5060842;28;20116;-52
2023/01/24 11:34:54;;;;;;;20.70;12.43;;;3.00;99.90;;;;;;5060998;28;20113;-51
2023/01/24 11:37:40;;;;;;;21.08;12.13;;;2.50;99.90;;;;;;5061452;28;20040;-52
2023/01/24 11:40:09;;;;;;;20.98;12.65;;;2.60;99.90;;;;;;5068139;28;20032;-50
2023/01/24 11:43:00;;;;;;;19.40;11.52;;;2.60;99.90;;;;;;5070598;28;20044;-50
2023/01/24 11:45:58;;;;;;;19.95;11.98;;;2.60;99.90;;;;;;5054588;28;20060;-53
2023/01/24 11:48:40;;;;;;;18.02;11.38;;;2.60;99.90;;;;;;5068381;28;20044;-50
2023/01/24 11:51:17;;;;;;;19.67;11.77;;;2.60;99.90;;;;;;5064871;28;20093;-48
2023/01/24 11:54:06;;;;;;;17.55;11.23;;;3.10;99.90;;;;;;5064464;28;20047;-51
2023/01/24 11:56:55;;;;;;;20.95;11.10;;;2.60;99.90;;;;;;5062939;28;20488;-50
2023/01/24 11:59:44;;;;;;;20.65;11.00;;;2.60;99.90;;;;;;5063186;28;20135;-51
2023/01/24 12:02:47;;;;;;;18.98;10.95;;;2.60;99.90;;;;;;5064095;28;20045;-50
2023/01/24 12:05:25;;;;;;;19.95;11.15;;;1.50;99.90;;;;;;5067344;28;20044;-50
2023/01/24 12:08:32;;;;;;;18.15;11.43;;;2.60;99.90;;;;;;5063849;28;20453;-51
2023/01/24 12:11:19;;;;;;;16.98;10.75;;;2.60;99.90;;;;;;5062331;28;20040;-47
2023/01/24 12:13:56;;;;;;;18.45;10.70;;;2.60;99.90;;;;;;5063137;28;20044;-49
2023/01/24 12:16:21;;;;;;;18.45;11.18;;;2.60;99.90;;;;;;5061709;28;20041;-48
2023/01/24 12:19:01;;;;;;;18.83;12.05;;;2.70;99.90;;;;;;5061952;28;20044;-49
2023/01/24 12:21:27;;;;;;;17.20;11.18;;;2.70;99.90;;;;;;5067631;28;20055;-51
2023/01/24 12:24:10;;;;;;;19.17;11.70;;;3.10;99.90;;;;;;5068777;28;20037;-48
2023/01/24 12:26:44;;;;;;;18.63;11.23;;;2.60;99.90;;;;;;5068128;28;20112;-50
2023/01/24 12:29:40;;;;;;;18.67;11.15;;;2.70;99.90;;;;;;5065896;28;20041;-50
2023/01/24 12:32:31;;;;;;;18.30;10.48;;;3.20;99.90;;;;;;5063249;28;21282;-52
2023/01/24 12:35:17;;;;;;;18.25;10.70;;;2.60;99.90;;;;;;5060477;28;20044;-47
2023/01/24 12:37:59;;;;;;;17.95;11.20;;;2.60;99.90;;;;;;5065937;28;20404;-53
2023/01/24 12:40:59;;;;;;;18.13;11.13;;;2.60;99.90;;;;;;5063159;28;20052;-50
2023/01/24 12:43:35;;;;;;;19.67;11.38;;;2.60;99.90;;;;;;5063852;28;20532;-49
2023/01/24 12:46:08;;;;;;;18.05;10.52;;;2.60;99.90;;;;;;5062778;28;20048;-51
2023/01/24 12:48:48;;;;;;;20.40;12.52;;;2.60;99.90;;;;;;5060258;28;20051;-48
2023/01/24 12:51:21;;;;;;;18.02;11.95;;;2.70;99.90;;;;;;5058436;28;20041;-47
2023/01/24 12:54:21;;;;;;;19.23;11.98;;;3.00;99.90;;;;;;5064131;28;20041;-48
2023/01/24 12:57:25;;;;;;;21.17;12.50;;;2.70;99.90;;;;;;5063091;28;20037;-50
2023/01/24 12:59:51;;;;;;;19.00;11.88;;;2.70;99.90;;;;;;5058202;28;20091;-48
2023/01/24 13:02:49;;;;;;;17.20;11.40;;;3.00;99.90;;;;;;5061290;28;20044;-46
2023/01/24 13:05:24;;;;;;;17.83;11.52;;;2.70;99.90;;;;;;5069012;28;20487;-50
2023/01/24 13:08:15;;;;;;;16.35;11.30;;;2.70;99.90;;;;;;5069855;28;20066;-49
2023/01/24 13:11:09;;;;;;;18.25;12.18;;;2.70;99.90;;;;;;5069734;28;20361;-50
2023/01/24 13:13:43;;;;;;;17.50;11.05;;;2.80;99.90;;;;;;5057762;28;20045;-49
2023/01/24 13:16:30;;;;;;;17.40;11.02;;;2.70;99.90;;;;;;5070902;28;20033;-48
2023/01/24 13:19:26;;;;;;;15.88;10.20;;;2.70;99.90;;;;;;5070896;28;20044;-48
2023/01/24 13:22:00;;;;;;;18.23;11.60;;;2.60;99.90;;;;;;5070576;28;20044;-51
2023/01/24 13:24:56;;;;;;;18.33;11.30;;;2.60;99.90;;;;;;5070700;28;20043;-49
2023/01/24 13:27:32;;;;;;;17.98;11.85;;;2.70;99.90;;;;;;5069872;28;20457;-51
2023/01/24 13:30:19;;;;;;;17.10;11.07;;;2.70;99.90;;;;;;5072675;28;20123;-49
2023/01/24 13:32:45;;;;;;;19.45;12.43;;;2.70;99.90;;;;;;5069786;28;20036;-48
2023/01/24 13:35:25;;;;;;;18.60;11.80;;;2.70;99.90;;;;;;5063227;28;20051;-47